createdAt,value
2022-09-17T03:28:47.476Z,51.156120
2022-09-17T03:29:47.251Z,51.156113
2022-09-17T03:30:49.326Z,51.156086
2022-09-17T03:31:51.461Z,51.156116
2022-09-17T03:32:47.022Z,51.156155
2022-09-17T03:33:47.215Z,51.156094
2022-09-17T03:34:47.730Z,51.156006
2022-09-17T03:35:47.460Z,51.156002
2022-09-17T03:36:48.272Z,51.155991
2022-09-17T03:37:47.739Z,51.156078
2022-09-17T03:38:47.389Z,51.156113
2022-09-17T03:39:47.338Z,51.156097
2022-09-17T03:40:47.983Z,51.156101
2022-09-17T03:41:49.758Z,51.156151
2022-09-17T03:42:47.603Z,51.156128
2022-09-17T03:43:47.049Z,51.156101
2022-09-17T03:44:56.005Z,51.156090
2022-09-17T03:45:47.397Z,51.156086
2022-09-17T03:46:47.907Z,51.155998
2022-09-17T03:47:48.054Z,51.155945
2022-09-17T03:48:51.968Z,51.156109
2022-09-17T03:49:47.754Z,51.156048
2022-09-17T03:50:48.894Z,51.156097
2022-09-17T03:51:47.222Z,51.156109
2022-09-17T03:52:47.458Z,51.156200
2022-09-17T03:53:48.869Z,51.156178
2022-09-17T03:54:47.650Z,51.156319
2022-09-17T03:55:46.511Z,51.156208
2022-09-17T03:56:46.806Z,51.156139
2022-09-17T03:57:46.725Z,51.156059
2022-09-17T03:58:46.769Z,51.155983
2022-09-17T03:59:47.312Z,51.155960
2022-09-17T04:00:47.242Z,51.156170
2022-09-17T04:01:47.036Z,51.156193
2022-09-17T04:02:47.217Z,51.156116
2022-09-17T04:03:47.320Z,51.156174
2022-09-17T04:04:46.718Z,51.156158
2022-09-17T04:05:46.887Z,51.156181
2022-09-17T04:06:47.617Z,51.156113
2022-09-17T04:07:49.094Z,51.156036
2022-09-17T04:08:47.451Z,51.155937
2022-09-17T04:09:46.517Z,51.156113
2022-09-17T04:10:46.432Z,51.156075
2022-09-17T04:11:46.480Z,51.156162
2022-09-17T04:12:46.740Z,51.156158
2022-09-17T04:13:46.488Z,51.156147
2022-09-17T04:14:49.449Z,51.156132
2022-09-17T04:15:47.672Z,51.156158
2022-09-17T04:16:46.806Z,51.156128
2022-09-17T04:17:48.016Z,51.156170
2022-09-17T04:18:46.361Z,51.156136
2022-09-17T04:19:46.462Z,51.156132
2022-09-17T04:20:46.432Z,51.156128
2022-09-17T04:21:47.977Z,51.156170
2022-09-17T04:22:47.005Z,51.156086
2022-09-17T04:23:46.592Z,51.156071
2022-09-17T04:24:46.227Z,51.156109
2022-09-17T04:25:46.297Z,51.156097
2022-09-17T04:26:46.753Z,51.156086
2022-09-17T04:27:46.256Z,51.156101
2022-09-17T04:28:46.595Z,51.156086
2022-09-17T04:29:46.221Z,51.156151
2022-09-17T04:30:46.421Z,51.156082
2022-09-17T04:31:47.323Z,51.156082
2022-09-17T04:32:46.270Z,51.156090
2022-09-17T04:33:46.605Z,51.156143
2022-09-17T04:34:46.171Z,51.156166
2022-09-17T04:35:46.322Z,51.156212
2022-09-17T04:36:46.208Z,51.156174
2022-09-17T04:37:46.215Z,51.156189
2022-09-17T04:38:46.298Z,51.156193
2022-09-17T04:39:46.324Z,51.156090
2022-09-17T04:40:46.234Z,51.156090
2022-09-17T04:41:46.064Z,51.156113
2022-09-17T04:42:46.168Z,51.156132
2022-09-17T04:43:46.116Z,51.156158
2022-09-17T04:44:46.051Z,51.156143
2022-09-17T04:45:46.070Z,51.156128
2022-09-17T04:46:46.568Z,51.156170
2022-09-17T04:47:47.034Z,51.156128
2022-09-17T04:48:46.112Z,51.156071
2022-09-17T04:49:46.069Z,51.156059
2022-09-17T04:50:46.183Z,51.156116
2022-09-17T04:51:46.025Z,51.156151
2022-09-17T04:52:46.072Z,51.156078
2022-09-17T04:53:46.213Z,51.156116
2022-09-17T04:54:46.042Z,51.156109
2022-09-17T04:55:45.945Z,51.156113
2022-09-17T04:56:46.105Z,51.156082
2022-09-17T04:57:46.090Z,51.156097
2022-09-17T04:58:47.189Z,51.156101
2022-09-17T04:59:46.098Z,51.156086
2022-09-17T05:00:46.064Z,51.156090
2022-09-17T05:01:46.810Z,51.156116
2022-09-17T05:02:46.022Z,51.156113
2022-09-17T05:03:46.694Z,51.156116
2022-09-17T05:04:45.901Z,51.156086
2022-09-17T05:05:45.857Z,51.156105
2022-09-17T05:06:45.862Z,51.156059
2022-09-17T05:07:45.848Z,51.156082
2022-09-17T05:08:45.793Z,51.156143
2022-09-17T05:09:45.809Z,51.156139
2022-09-17T05:10:45.852Z,51.156116
2022-09-17T05:11:45.726Z,51.156155
2022-09-17T05:12:45.745Z,51.156162
2022-09-17T05:13:45.707Z,51.156166
2022-09-17T05:14:45.737Z,51.156136
2022-09-17T05:15:45.794Z,51.156136
2022-09-17T05:16:45.768Z,51.156181
2022-09-17T05:17:45.774Z,51.156155
2022-09-17T05:18:45.660Z,51.156132
2022-09-17T05:19:45.699Z,51.156120
2022-09-17T05:20:45.645Z,51.156113
2022-09-17T05:21:45.743Z,51.156178
2022-09-17T05:22:47.171Z,51.156174
2022-09-17T05:23:45.640Z,51.156155
2022-09-17T05:24:46.471Z,51.156162
2022-09-17T05:25:45.686Z,51.156250
2022-09-17T05:26:45.552Z,51.156147
2022-09-17T05:27:45.693Z,51.156124
2022-09-17T05:28:45.625Z,51.156178
2022-09-17T05:29:46.347Z,51.156166
2022-09-17T05:30:45.626Z,51.156189
2022-09-17T05:31:45.859Z,51.156170
2022-09-17T05:32:45.980Z,51.156174
2022-09-17T05:33:45.605Z,51.156105
2022-09-17T05:34:45.663Z,51.156155
2022-09-17T05:35:45.826Z,51.156158
2022-09-17T05:36:45.733Z,51.156181
2022-09-17T05:37:45.516Z,51.156166
2022-09-17T05:38:45.652Z,51.156162
2022-09-17T05:39:45.525Z,51.156143
2022-09-17T05:40:45.531Z,51.156132
2022-09-17T05:41:45.486Z,51.156151
2022-09-17T05:42:45.565Z,51.156139
2022-09-17T05:43:45.579Z,51.156151
2022-09-17T05:44:45.462Z,51.156124
2022-09-17T05:45:45.542Z,51.156136
2022-09-17T05:46:45.433Z,51.156124
2022-09-17T05:47:45.492Z,51.156143
2022-09-17T05:48:45.450Z,51.156116
2022-09-17T05:49:45.542Z,51.156116
2022-09-17T05:50:45.355Z,51.156147
2022-09-17T05:51:45.377Z,51.156139
2022-09-17T05:52:46.120Z,51.156120
2022-09-17T05:53:45.379Z,51.156136
2022-09-17T05:54:45.416Z,51.156151
2022-09-17T05:55:45.590Z,51.156166
2022-09-17T05:56:45.494Z,51.156151
2022-09-17T05:57:45.325Z,51.156151
2022-09-17T05:58:45.494Z,51.156101
2022-09-17T05:59:46.188Z,51.156116
2022-09-17T06:00:45.342Z,51.156136
2022-09-17T06:01:45.429Z,51.156143
2022-09-17T06:02:45.435Z,51.156139
2022-09-17T06:03:45.393Z,51.156155
2022-09-17T06:04:45.708Z,51.156139
2022-09-17T06:05:45.324Z,51.156067
2022-09-17T06:06:45.437Z,51.156094
2022-09-17T06:07:45.400Z,51.156090
2022-09-17T06:08:45.501Z,51.156155
2022-09-17T06:09:45.199Z,51.156086
2022-09-17T06:10:45.438Z,51.156094
2022-09-17T06:11:45.214Z,51.156109
2022-09-17T06:12:45.406Z,51.156075
2022-09-17T06:13:45.200Z,51.156116
2022-09-17T06:14:45.133Z,51.156113
2022-09-17T06:15:46.127Z,51.156101
2022-09-17T06:16:45.347Z,51.156116
2022-09-17T06:17:45.106Z,51.156101
2022-09-17T06:18:45.144Z,51.156097
2022-09-17T06:19:45.053Z,51.156113
2022-09-17T06:20:45.137Z,51.156109
2022-09-17T06:21:45.336Z,51.156139
2022-09-17T06:22:45.149Z,51.156132
2022-09-17T06:23:45.206Z,51.156105
2022-09-17T06:24:45.236Z,51.156136
2022-09-17T06:25:45.045Z,51.156147
2022-09-17T06:26:45.147Z,51.156158
2022-09-17T06:27:45.155Z,51.156075
2022-09-17T06:28:45.018Z,51.156151
2022-09-17T06:29:45.124Z,51.156219
2022-09-17T06:30:45.073Z,51.156193
2022-09-17T06:31:45.143Z,51.156292
2022-09-17T06:32:45.266Z,51.156269
2022-09-17T06:33:45.023Z,51.156261
2022-09-17T06:34:44.970Z,51.156185
2022-09-17T06:35:44.897Z,51.156200
2022-09-17T06:36:44.918Z,51.156219
2022-09-17T06:37:45.022Z,51.156178
2022-09-17T06:38:45.042Z,51.156227
2022-09-17T06:39:44.904Z,51.156078
2022-09-17T06:40:45.639Z,51.156033
2022-09-17T06:41:44.917Z,51.156010
2022-09-17T06:42:44.824Z,51.156116
2022-09-17T06:43:45.713Z,51.156124
2022-09-17T06:44:44.832Z,51.156113
2022-09-17T06:45:44.867Z,51.156105
2022-09-17T06:46:44.788Z,51.156048
2022-09-17T06:47:45.586Z,51.156002
2022-09-17T06:48:45.010Z,51.155941
2022-09-17T06:49:44.795Z,51.156067
2022-09-17T06:50:45.483Z,51.156052
2022-09-17T06:51:44.693Z,51.156139
2022-09-17T06:52:46.041Z,51.156120
2022-09-17T06:53:44.860Z,51.156120
2022-09-17T06:54:44.857Z,51.156181
2022-09-17T06:55:44.763Z,51.156162
2022-09-17T06:56:44.843Z,51.156136
2022-09-17T06:57:44.762Z,51.156113
2022-09-17T06:58:44.642Z,51.156109
2022-09-17T06:59:45.658Z,51.156094
2022-09-17T07:00:44.728Z,51.156128
2022-09-17T07:01:44.644Z,51.156158
2022-09-17T07:02:44.734Z,51.156139
2022-09-17T07:03:44.604Z,51.156185
2022-09-17T07:04:44.659Z,51.156178
2022-09-17T07:05:44.557Z,51.156162
2022-09-17T07:06:44.776Z,51.156097
2022-09-17T07:07:44.599Z,51.156017
2022-09-17T07:08:44.700Z,51.156029
2022-09-17T07:09:44.610Z,51.156055
2022-09-17T07:10:44.548Z,51.156128
2022-09-17T07:11:44.910Z,51.156109
2022-09-17T07:12:49.191Z,51.156075
2022-09-17T07:13:46.665Z,51.156071
2022-09-17T07:14:44.473Z,51.156113
2022-09-17T07:15:44.565Z,51.156124
2022-09-17T07:16:44.481Z,51.156143
2022-09-17T07:17:45.778Z,51.156082
2022-09-17T07:18:44.563Z,51.156120
2022-09-17T07:19:44.740Z,51.156094
2022-09-17T07:20:44.538Z,51.156086
2022-09-17T07:21:44.709Z,51.156109
2022-09-17T07:22:44.668Z,51.156158
2022-09-17T07:23:44.443Z,51.156155
2022-09-17T07:24:44.472Z,51.156105
2022-09-17T07:25:45.164Z,51.156086
2022-09-17T07:26:44.462Z,51.156105
2022-09-17T07:27:44.623Z,51.156094
2022-09-17T07:28:44.745Z,51.156090
2022-09-17T07:29:44.430Z,51.156128
2022-09-17T07:30:44.379Z,51.156101
2022-09-17T07:31:44.387Z,51.156094
2022-09-17T07:32:44.365Z,51.156101
2022-09-17T07:33:44.826Z,51.156071
2022-09-17T07:34:44.503Z,51.156094
2022-09-17T07:35:44.297Z,51.156109
2022-09-17T07:36:44.374Z,51.156078
2022-09-17T07:37:44.342Z,51.156071
2022-09-17T07:38:44.309Z,51.156078
2022-09-17T07:39:44.309Z,51.156075
2022-09-17T07:40:44.274Z,51.156116
2022-09-17T07:41:44.486Z,51.156101
2022-09-17T07:42:44.282Z,51.156094
2022-09-17T07:43:44.342Z,51.156082
2022-09-17T07:44:44.428Z,51.156120
2022-09-17T07:45:44.291Z,51.156094
2022-09-17T07:46:44.396Z,51.156052
2022-09-17T07:47:44.158Z,51.156048
2022-09-17T07:48:44.229Z,51.156116
2022-09-17T07:49:44.282Z,51.156044
2022-09-17T07:50:44.500Z,51.156109
2022-09-17T07:51:44.220Z,51.156105
2022-09-17T07:52:44.325Z,51.156094
2022-09-17T07:53:44.140Z,51.156094
2022-09-17T07:54:44.155Z,51.156090
2022-09-17T07:55:44.317Z,51.156082
2022-09-17T07:56:44.256Z,51.156090
2022-09-17T07:57:44.326Z,51.156109
2022-09-17T07:58:46.752Z,51.156139
2022-09-17T07:59:44.202Z,51.156109
2022-09-17T08:00:44.050Z,51.156109
2022-09-17T08:01:44.172Z,51.156059
2022-09-17T08:02:44.150Z,51.156094
2022-09-17T08:03:44.145Z,51.156059
2022-09-17T08:04:44.005Z,51.156071
2022-09-17T08:05:44.082Z,51.156067
2022-09-17T08:06:44.069Z,51.156078
2022-09-17T08:07:44.239Z,51.156052
2022-09-17T08:08:44.177Z,51.156067
2022-09-17T08:09:44.021Z,51.156090
2022-09-17T08:10:44.217Z,51.156017
2022-09-17T08:11:55.696Z,51.156101
2022-09-17T08:12:46.028Z,51.156029
2022-09-17T08:13:44.005Z,51.156166
2022-09-17T08:14:44.038Z,51.156189
2022-09-17T08:15:44.330Z,51.156094
2022-09-17T08:16:44.162Z,51.156063
2022-09-17T08:17:44.055Z,51.156105
2022-09-17T08:18:44.809Z,51.156040
2022-09-17T08:19:45.134Z,51.156136
2022-09-17T08:20:43.901Z,51.156044
2022-09-17T08:21:44.299Z,51.156033
2022-09-17T08:22:46.780Z,51.156113
2022-09-17T08:23:44.939Z,51.155933
2022-09-17T08:24:43.816Z,51.155998
2022-09-17T08:25:44.939Z,51.156040
2022-09-17T08:26:43.834Z,51.156078
2022-09-17T08:27:44.025Z,51.156082
2022-09-17T08:28:45.970Z,51.156055
2022-09-17T08:29:43.895Z,51.156036
2022-09-17T08:30:43.758Z,51.156002
2022-09-17T08:31:44.446Z,51.156094
2022-09-17T08:32:44.728Z,51.156113
2022-09-17T08:33:43.783Z,51.156132
2022-09-17T08:34:43.720Z,51.156124
2022-09-17T08:35:43.792Z,51.156113
2022-09-17T08:36:43.898Z,51.156071
2022-09-17T08:37:43.847Z,51.156044
2022-09-17T08:38:44.300Z,51.156075
2022-09-17T08:39:43.752Z,51.156055
2022-09-17T08:40:43.638Z,51.156075
2022-09-17T08:41:44.375Z,51.156086
2022-09-17T08:42:43.945Z,51.156067
2022-09-17T08:43:43.667Z,51.156082
2022-09-17T08:44:44.527Z,51.156097
2022-09-17T08:45:43.906Z,51.156094
2022-09-17T08:46:43.722Z,51.156082
2022-09-17T08:47:43.633Z,51.156101
2022-09-17T08:48:43.701Z,51.156075
2022-09-17T08:49:43.584Z,51.156063
2022-09-17T08:50:43.700Z,51.156082
2022-09-17T08:51:43.549Z,51.156063
2022-09-17T08:52:43.912Z,51.156082
2022-09-17T08:53:43.715Z,51.156071
2022-09-17T08:54:44.344Z,51.156071
2022-09-17T08:55:44.797Z,51.156086
2022-09-17T08:56:43.536Z,51.156105
2022-09-17T08:57:43.744Z,51.156075
2022-09-17T08:58:43.606Z,51.156105
2022-09-17T08:59:43.579Z,51.156101
2022-09-17T09:00:43.561Z,51.156101
2022-09-17T09:01:43.605Z,51.156094
2022-09-17T09:02:43.530Z,51.156067
2022-09-17T09:03:43.682Z,51.156120
2022-09-17T09:04:43.396Z,51.156116
2022-09-17T09:05:43.377Z,51.156113
2022-09-17T09:06:43.408Z,51.156097
2022-09-17T09:07:43.505Z,51.156113
2022-09-17T09:08:43.365Z,51.156071
2022-09-17T09:09:44.180Z,51.156094
2022-09-17T09:10:43.338Z,51.156075
2022-09-17T09:11:43.373Z,51.156078
2022-09-17T09:12:43.437Z,51.156105
2022-09-17T09:13:44.129Z,51.156097
2022-09-17T09:14:43.838Z,51.156078
2022-09-17T09:15:43.398Z,51.156090
2022-09-17T09:16:44.358Z,51.156105
2022-09-17T09:17:43.269Z,51.156116
2022-09-17T09:18:44.222Z,51.156105
2022-09-17T09:19:43.339Z,51.156059
2022-09-17T09:20:43.322Z,51.156082
2022-09-17T09:21:43.253Z,51.156086
2022-09-17T09:22:43.247Z,51.156075
2022-09-17T09:23:43.710Z,51.156063
2022-09-17T09:24:43.211Z,51.156090
2022-09-17T09:25:43.262Z,51.156044
2022-09-17T09:26:43.155Z,51.156143
2022-09-17T09:27:43.196Z,51.156082
2022-09-17T09:28:43.187Z,51.156094
2022-09-17T09:29:43.139Z,51.156086
2022-09-17T09:30:43.153Z,51.156101
2022-09-17T09:31:43.302Z,51.156071
2022-09-17T09:32:43.157Z,51.156086
2022-09-17T09:33:47.572Z,51.156101
2022-09-17T09:34:44.175Z,51.156094
2022-09-17T09:35:43.095Z,51.156078
2022-09-17T09:36:43.145Z,51.156086
2022-09-17T09:37:43.047Z,51.156097
2022-09-17T09:38:43.115Z,51.156082
2022-09-17T09:39:46.092Z,51.156075
2022-09-17T09:40:44.018Z,51.156071
2022-09-17T09:41:43.092Z,51.156132
2022-09-17T09:42:42.994Z,51.156124
2022-09-17T09:44:02.562Z,51.156128
2022-09-17T09:44:44.994Z,51.156101
2022-09-17T09:45:42.943Z,51.156090
2022-09-17T09:46:43.036Z,51.156090
2022-09-17T09:47:42.989Z,51.156090
2022-09-17T09:48:43.926Z,51.156075
2022-09-17T09:49:42.988Z,51.156090
2022-09-17T09:51:05.327Z,51.156094
2022-09-17T09:51:44.956Z,51.156090
2022-09-17T09:52:42.909Z,51.156090
2022-09-17T09:53:42.893Z,51.156078
2022-09-17T09:54:42.842Z,51.156071
2022-09-17T09:55:42.852Z,51.156109
2022-09-17T09:56:42.836Z,51.156105
2022-09-17T09:57:42.886Z,51.156059
2022-09-17T09:58:42.899Z,51.156021
2022-09-17T09:59:42.833Z,51.156044
2022-09-17T10:00:42.996Z,51.156059
2022-09-17T10:01:42.986Z,51.156124
2022-09-17T10:02:43.044Z,51.156097
2022-09-17T10:03:42.774Z,51.156097
2022-09-17T10:04:42.739Z,51.156044
2022-09-17T10:05:42.804Z,51.156052
2022-09-17T10:06:42.727Z,51.156063
2022-09-17T10:07:42.940Z,51.156067
2022-09-17T10:08:42.747Z,51.156086
2022-09-17T10:09:42.808Z,51.156116
2022-09-17T10:10:42.717Z,51.156109
2022-09-17T10:11:42.914Z,51.156090
2022-09-17T10:12:42.703Z,51.156139
2022-09-17T10:13:42.690Z,51.156075
2022-09-17T10:14:43.625Z,51.156033
2022-09-17T10:15:42.844Z,51.155949
2022-09-17T10:16:42.691Z,51.156029
2022-09-17T10:17:42.696Z,51.156063
2022-09-17T10:22:54.479Z,51.156170
2022-09-17T10:23:53.458Z,51.156181
2022-09-17T10:24:50.515Z,51.156178
2022-09-17T10:25:55.370Z,51.156166
2022-09-17T10:26:52.536Z,51.156155
2022-09-17T10:27:50.445Z,51.156158
2022-09-17T10:28:47.956Z,51.156185
2022-09-17T10:29:50.004Z,51.156166
2022-09-17T10:30:49.088Z,51.156193
2022-09-17T10:31:52.284Z,51.156219
2022-09-17T10:32:56.015Z,51.156155
2022-09-17T10:33:50.333Z,51.156147
2022-09-17T10:34:54.090Z,51.156155
2022-09-17T10:35:49.017Z,51.156143
2022-09-17T10:36:53.178Z,51.156132
2022-09-17T10:37:48.948Z,51.156139
2022-09-17T10:38:50.061Z,51.156086
2022-09-17T10:39:48.928Z,51.156136
2022-09-17T10:40:48.788Z,51.156128
2022-09-17T10:42:01.781Z,51.156143
2022-09-17T10:43:21.085Z,51.156147
2022-09-17T10:43:51.803Z,51.156124
2022-09-17T10:44:51.201Z,51.156147
2022-09-17T10:45:52.260Z,51.156132
2022-09-17T10:46:50.228Z,51.156155
2022-09-17T10:47:49.043Z,51.156147
2022-09-17T10:48:47.923Z,51.156082
2022-09-17T10:49:58.975Z,51.156120
2022-09-17T10:51:00.658Z,51.156136
2022-09-17T10:51:54.791Z,51.156136
2022-09-17T10:53:02.517Z,51.156155
2022-09-17T10:53:50.107Z,51.156136
2022-09-17T10:54:53.990Z,51.156120
2022-09-17T10:55:51.397Z,51.156109
2022-09-17T10:57:10.918Z,51.156105
2022-09-17T10:57:49.062Z,51.156071
2022-09-17T10:58:48.887Z,51.156113
2022-09-17T10:59:54.965Z,51.156143
2022-09-17T11:01:03.690Z,51.156124
2022-09-17T11:01:57.678Z,51.156158
2022-09-17T11:03:03.554Z,51.156139
2022-09-17T11:04:01.268Z,51.156120
2022-09-17T11:04:50.226Z,51.156113
2022-09-17T11:05:57.591Z,51.156116
2022-09-17T11:06:47.463Z,51.156075
2022-09-17T11:07:53.260Z,51.156097
2022-09-17T11:08:48.025Z,51.156113
2022-09-17T11:09:59.620Z,51.156109
2022-09-17T11:10:53.845Z,51.156105
2022-09-17T11:11:50.052Z,51.156105
2022-09-17T11:13:14.240Z,51.156113
2022-09-17T11:13:48.778Z,51.156094
2022-09-17T11:14:47.696Z,51.156097
2022-09-17T11:15:55.809Z,51.156109
2022-09-17T11:16:54.982Z,51.156124
2022-09-17T11:17:47.714Z,51.156116
2022-09-17T11:18:47.659Z,51.156109
2022-09-17T11:19:47.892Z,51.156120
2022-09-17T11:21:00.001Z,51.156128
2022-09-17T11:21:52.244Z,51.156124
2022-09-17T11:23:40.671Z,51.156128
2022-09-17T11:23:48.490Z,51.156113
2022-09-17T11:24:50.000Z,51.156120
2022-09-17T11:26:00.661Z,51.156136
2022-09-17T11:27:51.136Z,51.156162
2022-09-17T11:27:52.950Z,51.156162
2022-09-17T11:28:58.342Z,51.156128
2022-09-17T11:29:59.469Z,51.156120
2022-09-17T11:30:54.320Z,51.156151
2022-09-17T11:33:15.496Z,51.156147
2022-09-17T11:41:44.821Z,51.156219
2022-09-17T11:42:53.645Z,51.156239
2022-09-17T11:46:43.267Z,51.156166
2022-09-17T11:47:28.224Z,51.156128
2022-09-17T11:48:03.557Z,51.156128
2022-09-17T11:50:19.613Z,51.156189
2022-09-17T12:00:55.441Z,51.156097
2022-09-17T12:41:17.302Z,51.156101
2022-09-17T12:42:15.386Z,51.156101
2022-09-17T12:43:42.972Z,51.156124
2022-09-17T12:44:27.673Z,51.156094
2022-09-17T12:45:17.586Z,51.156132
2022-09-17T12:46:29.882Z,51.156067
2022-09-17T12:49:14.196Z,51.156086
2022-09-17T13:22:01.156Z,51.156040
2022-09-17T13:29:39.176Z,51.156036
2022-09-17T13:30:46.949Z,51.156033
2022-09-17T13:31:34.167Z,51.156048
2022-09-17T13:32:27.077Z,51.156055
2022-09-17T13:33:50.070Z,51.156055
2022-09-17T13:34:36.936Z,51.156017
2022-09-17T13:35:28.521Z,51.156063
2022-09-17T13:36:25.866Z,51.156059
2022-09-17T13:37:30.121Z,51.156044
2022-09-17T13:39:40.336Z,51.156017
2022-09-17T13:40:03.927Z,51.156017
